Time;durP1;ratioP1;P1;durP2;ratioP2;P2;SDS_P1;SDS_P2;PMS_P1;PMS_P2;Temp;Humidity;BMP_temperature;BMP_pressure;BME280_temperature;BME280_humidity;BME280_pressure;Samples;Min_cycle;Max_cycle;Signal;HPM_P1;HPM_P2
2024/03/05 00:02:19;;;;;;;19.73;6.35;;;8.30;99.90;;;;;;5006204;28;20388;-70
2024/03/05 00:04:46;;;;;;;20.73;7.63;;;8.30;99.90;;;;;;4986125;28;20368;-70
2024/03/05 00:07:12;;;;;;;17.52;6.28;;;8.40;99.90;;;;;;5006677;28;20043;-70
2024/03/05 00:09:38;;;;;;;20.95;6.88;;;8.40;99.90;;;;;;5002268;28;20030;-70
2024/03/05 00:12:04;;;;;;;14.10;5.93;;;8.30;99.90;;;;;;4990168;28;20045;-70
2024/03/05 00:14:31;;;;;;;19.58;7.80;;;8.30;99.90;;;;;;4985006;28;20034;-69
2024/03/05 00:16:57;;;;;;;24.17;9.07;;;8.20;99.90;;;;;;5006329;28;20029;-70
2024/03/05 00:19:26;;;;;;;22.48;7.32;;;8.20;99.90;;;;;;4986120;28;20034;-70
2024/03/05 00:21:52;;;;;;;24.75;7.63;;;8.30;99.90;;;;;;5006743;28;20034;-70
2024/03/05 00:24:18;;;;;;;24.05;7.90;;;8.30;99.90;;;;;;4989289;28;20121;-70
2024/03/05 00:26:44;;;;;;;19.63;7.60;;;8.20;99.90;;;;;;5006784;28;20559;-70
2024/03/05 00:29:10;;;;;;;19.50;7.47;;;8.30;99.90;;;;;;5002900;28;20064;-70
2024/03/05 00:31:39;;;;;;;22.48;7.47;;;8.30;99.90;;;;;;5009640;28;20019;-70
2024/03/05 00:34:05;;;;;;;19.70;7.35;;;8.40;99.90;;;;;;4989069;28;20116;-70
2024/03/05 00:36:31;;;;;;;22.80;5.85;;;8.40;99.90;;;;;;5009912;28;20026;-69
2024/03/05 00:38:57;;;;;;;17.17;6.63;;;8.50;99.90;;;;;;4999506;28;20034;-69
2024/03/05 00:41:23;;;;;;;18.58;7.57;;;8.50;99.90;;;;;;4991386;28;20034;-69
2024/03/05 00:43:49;;;;;;;28.92;8.27;;;8.30;99.90;;;;;;4972266;28;20109;-69
2024/03/05 00:46:16;;;;;;;27.55;10.45;;;8.20;99.90;;;;;;4989972;28;20110;-69
2024/03/05 00:48:42;;;;;;;24.10;8.00;;;8.20;99.90;;;;;;5005328;28;20037;-69
2024/03/05 00:51:08;;;;;;;17.05;8.45;;;8.20;99.90;;;;;;5009296;28;20121;-69
2024/03/05 00:53:34;;;;;;;23.25;7.05;;;8.30;99.90;;;;;;4972151;28;20038;-69
2024/03/05 00:56:00;;;;;;;21.02;6.60;;;8.20;99.90;;;;;;5009021;28;20029;-69
2024/03/05 00:58:26;;;;;;;18.70;8.93;;;8.20;99.90;;;;;;5005174;28;20027;-69
2024/03/05 01:00:54;;;;;;;29.77;8.52;;;8.20;99.90;;;;;;4992680;28;20108;-69
2024/03/05 01:03:20;;;;;;;27.65;9.65;;;8.10;99.90;;;;;;4989676;28;20043;-69
2024/03/05 01:05:46;;;;;;;30.17;9.80;;;8.20;99.90;;;;;;4985559;28;20088;-69
2024/03/05 01:08:12;;;;;;;20.45;8.10;;;8.10;99.90;;;;;;5004712;28;20049;-69
2024/03/05 01:10:39;;;;;;;21.67;8.00;;;8.10;99.90;;;;;;4985747;28;20022;-69
2024/03/05 01:13:04;;;;;;;24.48;7.15;;;8.10;99.90;;;;;;4990793;28;20026;-69
2024/03/05 01:15:30;;;;;;;20.95;7.78;;;8.20;99.90;;;;;;4983975;28;20467;-69
2024/03/05 01:17:57;;;;;;;21.77;7.05;;;8.20;99.90;;;;;;4991901;28;20018;-70
2024/03/05 01:20:23;;;;;;;19.38;6.78;;;8.10;99.90;;;;;;4991592;28;20041;-69
2024/03/05 01:22:48;;;;;;;22.35;8.57;;;8.10;99.90;;;;;;4991849;28;20031;-69
2024/03/05 01:25:16;;;;;;;23.67;8.90;;;8.00;99.90;;;;;;4988866;28;20483;-69
2024/03/05 01:27:42;;;;;;;16.83;7.32;;;8.00;99.90;;;;;;5007833;28;20475;-69
2024/03/05 01:30:13;;;;;;;20.58;7.35;;;8.10;99.90;;;;;;4988210;23;20054;-64
2024/03/05 01:32:40;;;;;;;24.95;8.07;;;8.10;99.90;;;;;;4973466;28;20112;-63
2024/03/05 01:35:11;;;;;;;28.23;7.75;;;8.10;99.90;;;;;;4965534;28;20038;-64
2024/03/05 01:37:37;;;;;;;21.95;6.85;;;8.10;99.90;;;;;;4972289;28;20027;-64
2024/03/05 01:40:04;;;;;;;26.90;7.95;;;8.10;99.90;;;;;;4966884;28;20517;-64
2024/03/05 01:42:31;;;;;;;28.38;9.38;;;8.20;99.90;;;;;;4973460;28;20135;-63
2024/03/05 01:44:57;;;;;;;24.10;7.32;;;8.20;99.90;;;;;;4965383;28;20041;-63
2024/03/05 01:47:27;;;;;;;26.30;8.77;;;8.20;99.90;;;;;;4973425;28;20462;-63
2024/03/05 01:49:54;;;;;;;24.05;8.15;;;8.20;99.90;;;;;;4965460;28;20038;-64
2024/03/05 01:52:21;;;;;;;30.80;8.57;;;8.30;99.90;;;;;;4973567;28;20036;-64
2024/03/05 01:54:50;;;;;;;23.23;8.30;;;8.30;99.90;;;;;;4965090;28;20045;-64
2024/03/05 01:57:16;;;;;;;23.88;9.13;;;8.30;99.90;;;;;;4972236;28;20074;-64
2024/03/05 01:59:42;;;;;;;27.13;10.52;;;8.30;99.90;;;;;;4964968;28;20047;-64
2024/03/05 02:02:10;;;;;;;22.52;9.43;;;8.30;99.90;;;;;;4971667;28;20089;-64
2024/03/05 02:04:38;;;;;;;28.08;9.27;;;8.30;99.90;;;;;;4968175;28;20121;-64
2024/03/05 02:07:06;;;;;;;31.60;9.07;;;8.20;99.90;;;;;;4984241;28;20129;-64
2024/03/05 02:09:32;;;;;;;30.85;8.43;;;8.20;99.90;;;;;;4965791;28;20083;-64
2024/03/05 02:11:59;;;;;;;28.65;9.32;;;8.20;99.90;;;;;;4972655;28;20074;-64
2024/03/05 02:14:28;;;;;;;23.05;8.35;;;8.20;99.90;;;;;;4964050;28;20037;-64
2024/03/05 02:16:56;;;;;;;25.02;9.27;;;8.20;99.90;;;;;;4987330;28;20522;-64
2024/03/05 02:19:22;;;;;;;30.63;11.55;;;8.20;99.90;;;;;;4965857;28;20039;-64
2024/03/05 02:21:48;;;;;;;25.60;8.18;;;8.20;99.90;;;;;;4972779;28;20361;-64
2024/03/05 02:24:14;;;;;;;32.70;9.68;;;8.20;99.90;;;;;;4965607;28;20483;-64
2024/03/05 02:26:40;;;;;;;30.70;11.07;;;8.20;99.90;;;;;;4972623;28;20117;-64
2024/03/05 02:29:09;;;;;;;32.60;11.65;;;8.20;99.90;;;;;;4964871;28;20079;-64
2024/03/05 02:31:35;;;;;;;33.08;10.75;;;8.20;99.90;;;;;;4971927;28;20085;-64
2024/03/05 02:34:01;;;;;;;28.05;10.60;;;8.10;99.90;;;;;;4969597;28;20503;-64
2024/03/05 02:36:27;;;;;;;28.25;10.07;;;8.10;99.90;;;;;;4970505;28;20569;-65
2024/03/05 02:38:52;;;;;;;32.17;10.82;;;8.10;99.90;;;;;;4968941;28;20039;-64
2024/03/05 02:41:20;;;;;;;26.92;10.73;;;8.10;99.90;;;;;;4984814;28;20030;-64
2024/03/05 02:43:46;;;;;;;22.95;9.18;;;8.10;99.90;;;;;;4968196;28;20482;-64
2024/03/05 02:46:15;;;;;;;45.58;9.80;;;8.10;99.90;;;;;;4969161;28;20109;-63
2024/03/05 02:48:42;;;;;;;31.13;11.25;;;8.10;99.90;;;;;;4985046;28;20046;-63
2024/03/05 02:51:08;;;;;;;28.48;9.32;;;8.10;99.90;;;;;;4968540;28;20115;-63
2024/03/05 02:53:34;;;;;;;29.70;9.52;;;8.10;99.90;;;;;;4969044;28;20035;-64
2024/03/05 02:56:09;;;;;;;28.42;10.30;;;8.20;99.90;;;;;;4967272;28;20022;-64
2024/03/05 02:58:35;;;;;;;27.42;10.57;;;8.20;99.90;;;;;;4970436;28;20015;-64
2024/03/05 03:01:02;;;;;;;27.20;9.80;;;8.10;99.90;;;;;;4967690;28;20019;-64
2024/03/05 03:03:28;;;;;;;27.90;8.95;;;8.10;99.90;;;;;;4971108;28;20499;-65
2024/03/05 03:05:56;;;;;;;33.03;10.38;;;8.20;99.90;;;;;;4981323;28;20053;-65
2024/03/05 03:08:21;;;;;;;26.05;9.40;;;8.20;99.90;;;;;;4971814;28;20085;-62
2024/03/05 03:10:47;;;;;;;28.10;8.65;;;8.30;99.90;;;;;;4980205;28;20563;-63
2024/03/05 03:13:13;;;;;;;26.13;8.82;;;8.10;99.90;;;;;;4987387;28;20050;-63
2024/03/05 03:15:40;;;;;;;27.15;9.45;;;8.00;99.90;;;;;;4965810;28;20026;-63
2024/03/05 03:18:06;;;;;;;28.30;10.45;;;8.10;99.90;;;;;;4971184;28;20027;-63
2024/03/05 03:20:32;;;;;;;24.92;8.90;;;8.10;99.90;;;;;;4963443;28;20169;-63
2024/03/05 03:22:58;;;;;;;31.52;9.52;;;8.10;99.90;;;;;;4987043;28;20481;-64
2024/03/05 03:25:24;;;;;;;26.08;9.07;;;8.10;99.90;;;;;;4972864;28;20035;-64
2024/03/05 03:27:50;;;;;;;24.63;9.15;;;8.10;99.90;;;;;;4970987;28;20027;-63
2024/03/05 03:30:17;;;;;;;35.22;10.93;;;8.10;99.90;;;;;;4964441;28;20035;-63
2024/03/05 03:32:44;;;;;;;27.67;9.18;;;8.10;99.90;;;;;;4986530;28;20027;-63
2024/03/05 03:35:14;;;;;;;29.73;10.00;;;8.20;99.90;;;;;;4979377;28;20035;-65
2024/03/05 03:37:41;;;;;;;33.97;9.00;;;8.20;99.90;;;;;;4971809;28;20027;-63
2024/03/05 03:40:17;;;;;;;32.60;10.13;;;8.20;99.90;;;;;;4964834;28;20483;-63
2024/03/05 03:42:52;;;;;;;26.85;10.82;;;8.10;99.90;;;;;;4972155;28;20043;-64
2024/03/05 03:45:21;;;;;;;35.45;12.50;;;8.20;99.90;;;;;;4964757;28;20118;-64
2024/03/05 03:47:47;;;;;;;31.25;9.30;;;8.30;99.90;;;;;;4986258;28;20023;-64
2024/03/05 03:50:13;;;;;;;26.80;10.60;;;8.20;99.90;;;;;;4964750;28;20035;-64
2024/03/05 03:52:41;;;;;;;28.83;10.95;;;8.20;99.90;;;;;;4971821;28;20023;-64
2024/03/05 03:55:08;;;;;;;39.22;11.75;;;8.20;99.90;;;;;;4964768;28;20035;-64
2024/03/05 03:57:34;;;;;;;47.78;11.32;;;8.20;99.90;;;;;;4970384;28;20058;-64
2024/03/05 04:00:07;;;;;;;29.52;10.55;;;8.30;99.90;;;;;;4964723;28;20037;-64
2024/03/05 04:02:36;;;;;;;39.17;11.63;;;8.20;99.90;;;;;;4971836;28;20034;-64
2024/03/05 04:05:09;;;;;;;40.35;12.35;;;8.20;99.90;;;;;;4987664;28;20039;-64
2024/03/05 04:07:38;;;;;;;40.60;13.25;;;8.20;99.90;;;;;;4989852;28;20042;-64
2024/03/05 04:10:10;;;;;;;35.05;13.55;;;8.30;99.90;;;;;;4967284;28;20107;-64
2024/03/05 04:12:37;;;;;;;34.05;11.02;;;8.20;99.90;;;;;;4974581;28;20035;-64
2024/03/05 04:15:03;;;;;;;30.70;11.40;;;8.20;99.90;;;;;;4969697;28;20515;-65
2024/03/05 04:17:29;;;;;;;35.75;12.73;;;8.20;99.90;;;;;;4976445;28;20033;-64
2024/03/05 04:19:55;;;;;;;36.13;11.75;;;8.20;99.90;;;;;;4976114;28;20114;-64
2024/03/05 04:22:22;;;;;;;29.08;11.88;;;8.20;99.90;;;;;;4990856;28;20026;-64
2024/03/05 04:24:55;;;;;;;37.58;13.77;;;8.30;99.90;;;;;;4968674;28;20117;-64
2024/03/05 04:27:23;;;;;;;34.75;10.63;;;8.30;99.90;;;;;;4974264;28;20482;-64
2024/03/05 04:29:57;;;;;;;36.38;10.82;;;8.30;99.90;;;;;;4966051;28;20035;-64
2024/03/05 04:32:29;;;;;;;36.25;13.00;;;8.30;99.90;;;;;;4974826;28;20090;-64
2024/03/05 04:35:01;;;;;;;37.58;11.88;;;8.20;99.90;;;;;;4967955;28;20035;-64
2024/03/05 04:37:32;;;;;;;28.77;11.02;;;8.30;99.90;;;;;;4974694;28;20050;-64
2024/03/05 04:39:58;;;;;;;28.48;10.57;;;8.30;99.90;;;;;;4968294;28;20038;-64
2024/03/05 04:42:25;;;;;;;35.97;11.38;;;8.20;99.90;;;;;;4973989;28;20039;-64
2024/03/05 04:44:55;;;;;;;36.38;12.02;;;8.30;99.90;;;;;;4984076;28;20042;-64
2024/03/05 04:47:21;;;;;;;30.35;11.43;;;8.30;99.90;;;;;;4957537;28;20039;-64
2024/03/05 04:49:49;;;;;;;33.65;11.15;;;8.30;99.90;;;;;;4967288;28;20030;-63
2024/03/05 04:52:15;;;;;;;38.05;11.45;;;8.20;99.90;;;;;;4974336;28;20059;-64
2024/03/05 04:54:41;;;;;;;35.72;14.10;;;8.20;99.90;;;;;;4967079;28;20070;-64
2024/03/05 04:57:06;;;;;;;38.28;11.45;;;8.20;99.90;;;;;;4974786;28;20034;-64
2024/03/05 04:59:32;;;;;;;45.03;13.20;;;8.20;99.90;;;;;;4966820;28;20523;-64
2024/03/05 05:01:58;;;;;;;28.00;10.85;;;8.20;99.90;;;;;;4972989;28;20023;-64
2024/03/05 05:04:24;;;;;;;26.92;11.30;;;8.20;99.90;;;;;;4965069;28;20094;-63
2024/03/05 05:06:50;;;;;;;38.70;13.88;;;8.20;99.90;;;;;;4974423;28;20114;-63
2024/03/05 05:09:16;;;;;;;40.90;11.93;;;8.20;99.90;;;;;;4967123;28;20459;-64
2024/03/05 05:11:42;;;;;;;35.17;13.00;;;8.30;99.90;;;;;;4974480;28;20027;-64
2024/03/05 05:14:07;;;;;;;33.92;13.88;;;8.30;99.90;;;;;;4967810;28;20038;-64
2024/03/05 05:16:34;;;;;;;27.90;11.30;;;8.20;99.90;;;;;;4973496;28;20078;-64
2024/03/05 05:19:00;;;;;;;36.70;11.73;;;8.30;99.90;;;;;;4973992;28;20034;-64
2024/03/05 05:21:26;;;;;;;42.45;13.15;;;8.30;99.90;;;;;;4974611;28;20039;-64
2024/03/05 05:23:51;;;;;;;44.00;14.38;;;8.30;99.90;;;;;;4970210;28;20407;-65
2024/03/05 05:26:17;;;;;;;40.70;11.93;;;8.20;99.90;;;;;;4971646;28;20395;-65
2024/03/05 05:28:43;;;;;;;41.83;13.18;;;8.20;99.90;;;;;;4972790;28;20047;-65
2024/03/05 05:31:24;;;;;;;32.80;13.65;;;8.20;99.90;;;;;;4988715;28;20038;-64
2024/03/05 05:33:50;;;;;;;40.15;10.70;;;8.20;99.90;;;;;;4968512;28;20353;-63
2024/03/05 05:36:16;;;;;;;56.22;15.57;;;8.20;99.90;;;;;;4970324;28;20042;-64
2024/03/05 05:38:42;;;;;;;36.08;13.30;;;8.20;99.90;;;;;;4964776;28;20026;-64
2024/03/05 05:41:08;;;;;;;35.75;11.48;;;8.10;99.90;;;;;;4973740;28;20043;-64
2024/03/05 05:43:34;;;;;;;37.42;12.18;;;8.10;99.90;;;;;;4972278;28;20039;-64
2024/03/05 05:46:03;;;;;;;33.53;11.60;;;8.00;99.90;;;;;;4973412;28;20388;-63
2024/03/05 05:48:28;;;;;;;38.78;10.40;;;8.00;99.90;;;;;;4971339;28;20062;-64
2024/03/05 05:50:54;;;;;;;44.38;12.85;;;8.00;99.90;;;;;;4988010;28;20058;-64
2024/03/05 05:53:20;;;;;;;41.03;13.38;;;8.00;99.90;;;;;;4971980;28;20037;-64
2024/03/05 05:55:46;;;;;;;41.92;11.27;;;8.00;99.90;;;;;;4971953;28;20030;-64
2024/03/05 05:58:13;;;;;;;39.03;13.02;;;8.00;99.90;;;;;;4987588;28;20039;-64
2024/03/05 06:00:39;;;;;;;42.30;13.70;;;8.00;99.90;;;;;;4971610;28;20026;-64
2024/03/05 06:03:11;;;;;;;52.72;13.63;;;7.90;99.90;;;;;;4973209;28;20138;-63
2024/03/05 06:05:38;;;;;;;46.17;12.32;;;8.00;99.90;;;;;;4987313;28;20073;-64
2024/03/05 06:08:12;;;;;;;43.72;14.25;;;8.00;99.90;;;;;;4972125;28;20070;-62
2024/03/05 06:10:38;;;;;;;42.67;16.70;;;8.00;99.90;;;;;;4971520;28;20043;-65
2024/03/05 06:13:06;;;;;;;49.58;14.13;;;8.00;99.90;;;;;;4973319;28;20030;-64
2024/03/05 06:15:33;;;;;;;49.22;17.77;;;8.00;99.90;;;;;;4971648;28;20038;-64
2024/03/05 06:17:59;;;;;;;52.88;18.10;;;8.00;99.90;;;;;;4973177;28;20049;-64
2024/03/05 06:20:29;;;;;;;38.90;14.40;;;8.00;99.90;;;;;;4970221;28;20049;-64
2024/03/05 06:22:57;;;;;;;42.53;12.05;;;8.00;99.90;;;;;;4972879;28;20023;-64
2024/03/05 06:25:22;;;;;;;44.97;14.52;;;7.90;99.90;;;;;;4969604;28;20061;-65
2024/03/05 06:27:48;;;;;;;37.10;11.70;;;8.00;99.90;;;;;;4972504;28;20022;-64
2024/03/05 06:30:17;;;;;;;34.75;11.88;;;7.90;99.90;;;;;;4971965;28;20074;-64
2024/03/05 06:32:48;;;;;;;40.45;13.52;;;8.00;99.90;;;;;;4965131;28;20023;-64
2024/03/05 06:35:26;;;;;;;45.42;14.43;;;8.00;99.90;;;;;;4970359;28;20045;-63
2024/03/05 06:37:53;;;;;;;52.95;14.27;;;8.00;99.90;;;;;;4980551;28;20038;-63
2024/03/05 06:40:20;;;;;;;40.65;12.65;;;8.00;99.90;;;;;;4970893;28;20039;-64
2024/03/05 06:43:03;;;;;;;42.65;12.70;;;8.00;99.90;;;;;;4972645;28;20470;-64
2024/03/05 06:45:30;;;;;;;36.17;12.00;;;8.00;99.90;;;;;;4972820;28;20062;-63
2024/03/05 06:47:57;;;;;;;38.20;12.25;;;8.00;99.90;;;;;;4968127;28;20063;-63
2024/03/05 06:50:38;;;;;;;36.78;12.40;;;8.00;99.90;;;;;;4984759;28;20439;-64
2024/03/05 06:58:44;;;;;;;43.92;17.23;;;8.00;99.90;;;;;;4971208;28;20031;-65
2024/03/05 07:01:14;;;;;;;45.30;15.90;;;8.00;99.90;;;;;;4972035;28;20062;-64
2024/03/05 07:03:45;;;;;;;42.88;16.30;;;8.00;99.90;;;;;;4985939;28;20027;-64
2024/03/05 07:06:12;;;;;;;38.45;15.55;;;8.00;99.90;;;;;;4972634;28;20031;-64
2024/03/05 07:08:43;;;;;;;38.20;13.85;;;8.10;99.90;;;;;;4970938;28;20054;-64
2024/03/05 07:11:15;;;;;;;39.47;14.35;;;8.10;99.90;;;;;;4952079;28;20038;-64
2024/03/05 07:13:43;;;;;;;29.92;11.70;;;8.10;99.90;;;;;;4985055;28;20089;-65
2024/03/05 07:16:15;;;;;;;34.35;12.45;;;8.10;99.90;;;;;;4970644;28;20081;-64
2024/03/05 07:18:53;;;;;;;40.65;14.00;;;8.20;99.90;;;;;;4977540;28;20584;-64
2024/03/05 07:21:25;;;;;;;36.75;14.35;;;8.20;99.90;;;;;;4972302;28;20041;-64
2024/03/05 07:23:52;;;;;;;55.90;14.55;;;8.10;99.90;;;;;;4971187;28;20026;-63
2024/03/05 07:26:18;;;;;;;37.25;15.23;;;8.20;99.90;;;;;;4972036;28;20724;-63
2024/03/05 07:28:45;;;;;;;38.80;13.32;;;8.20;99.90;;;;;;4985798;23;20081;-67
2024/03/05 07:31:11;;;;;;;49.40;16.55;;;8.10;99.90;;;;;;4974064;28;20034;-67
2024/03/05 07:33:38;;;;;;;45.53;13.15;;;8.10;99.90;;;;;;4989285;28;20034;-67
2024/03/05 07:36:06;;;;;;;38.58;15.15;;;8.20;99.90;;;;;;4986227;28;20272;-68
2024/03/05 07:38:33;;;;;;;41.55;14.82;;;8.20;99.90;;;;;;4990319;28;20057;-68
2024/03/05 07:40:59;;;;;;;50.85;15.68;;;8.20;99.90;;;;;;4989450;28;20033;-67
2024/03/05 07:43:24;;;;;;;35.30;14.35;;;8.20;99.90;;;;;;4993540;28;20125;-68
2024/03/05 07:45:50;;;;;;;42.25;13.38;;;8.30;99.90;;;;;;5003354;28;20101;-68
2024/03/05 07:48:16;;;;;;;43.70;14.07;;;8.20;99.90;;;;;;4995697;28;20034;-68
2024/03/05 07:50:42;;;;;;;37.38;13.52;;;8.20;99.90;;;;;;4992588;28;20535;-68
2024/03/05 07:53:08;;;;;;;40.80;14.27;;;8.20;99.90;;;;;;4995859;28;20106;-68
2024/03/05 07:55:37;;;;;;;53.80;14.95;;;8.20;99.90;;;;;;4990261;28;20023;-67
2024/03/05 07:58:03;;;;;;;44.50;14.27;;;8.20;99.90;;;;;;4993010;28;20045;-68
2024/03/05 08:00:29;;;;;;;38.78;14.63;;;8.20;99.90;;;;;;4992909;28;20054;-68
2024/03/05 08:02:55;;;;;;;49.00;15.82;;;8.30;99.90;;;;;;4993297;28;20034;-67
2024/03/05 08:05:23;;;;;;;38.33;14.73;;;8.40;99.90;;;;;;5006814;28;20027;-68
2024/03/05 08:07:50;;;;;;;38.13;14.30;;;8.30;99.90;;;;;;5009198;28;20031;-68
2024/03/05 08:10:17;;;;;;;48.60;14.75;;;8.40;99.90;;;;;;4994207;28;20065;-68
2024/03/05 08:12:45;;;;;;;43.60;14.73;;;8.50;99.90;;;;;;5009868;28;20506;-68
2024/03/05 08:15:12;;;;;;;36.10;13.48;;;8.50;99.90;;;;;;4989078;28;20121;-68
2024/03/05 08:17:40;;;;;;;33.65;11.20;;;8.50;99.90;;;;;;4993104;28;20040;-68
2024/03/05 08:20:08;;;;;;;38.72;14.27;;;8.50;99.90;;;;;;4989423;28;20100;-68
2024/03/05 08:22:36;;;;;;;39.58;12.20;;;8.50;99.90;;;;;;4994365;28;20113;-68
2024/03/05 08:25:09;;;;;;;41.25;13.35;;;8.50;99.90;;;;;;4986066;28;20042;-68
2024/03/05 08:27:50;;;;;;;35.80;13.18;;;8.50;99.90;;;;;;4993109;28;20077;-67
2024/03/05 08:30:21;;;;;;;39.92;11.90;;;8.50;99.90;;;;;;5004230;28;20038;-68
2024/03/05 08:32:47;;;;;;;29.58;13.73;;;8.50;99.90;;;;;;5008918;28;20022;-68
2024/03/05 08:35:13;;;;;;;42.25;13.30;;;8.50;99.90;;;;;;4990688;28;20042;-68
2024/03/05 08:37:45;;;;;;;28.45;10.73;;;8.50;99.90;;;;;;4992936;28;20395;-67
2024/03/05 08:40:17;;;;;;;35.88;12.20;;;8.50;99.90;;;;;;4988964;28;20053;-67
2024/03/05 08:42:48;;;;;;;36.20;13.27;;;8.40;99.90;;;;;;5008783;28;20034;-67
2024/03/05 08:45:19;;;;;;;;;;;8.50;99.90;;;;;;4992016;28;20084;-68
2024/03/05 08:47:53;;;;;;;19.23;10.95;;;8.40;99.90;;;;;;4986844;28;20350;-67
2024/03/05 08:50:20;;;;;;;31.25;11.63;;;8.50;99.90;;;;;;4993545;28;20509;-67
2024/03/05 08:52:46;;;;;;;30.80;11.68;;;8.40;99.90;;;;;;4993100;28;20028;-67
2024/03/05 08:55:15;;;;;;;34.33;11.38;;;8.40;99.90;;;;;;4990167;28;20117;-67
2024/03/05 08:57:42;;;;;;;47.60;11.90;;;8.50;99.90;;;;;;4994555;28;20030;-68
2024/03/05 09:00:19;;;;;;;38.92;11.95;;;8.60;99.90;;;;;;4989675;28;20034;-67
2024/03/05 09:02:46;;;;;;;31.75;11.68;;;8.50;99.90;;;;;;4994401;28;20026;-67
2024/03/05 09:05:12;;;;;;;24.15;11.93;;;8.50;99.90;;;;;;4988700;28;20038;-67
2024/03/05 09:07:40;;;;;;;35.28;12.75;;;8.60;99.90;;;;;;5009268;28;20471;-68
2024/03/05 09:10:07;;;;;;;22.40;9.30;;;8.60;99.90;;;;;;4989752;28;20030;-68
2024/03/05 09:12:33;;;;;;;31.23;10.07;;;8.60;99.90;;;;;;5009059;28;20089;-68
2024/03/05 09:14:59;;;;;;;30.83;10.52;;;8.50;99.90;;;;;;4988537;28;20030;-67
2024/03/05 09:17:26;;;;;;;28.48;11.63;;;8.50;99.90;;;;;;4994423;28;20050;-67
2024/03/05 09:19:52;;;;;;;30.95;10.40;;;8.60;99.90;;;;;;5008484;28;20088;-67
2024/03/05 09:22:19;;;;;;;39.25;11.07;;;8.70;99.90;;;;;;4992646;28;20027;-67
2024/03/05 09:24:45;;;;;;;21.08;10.55;;;8.60;99.90;;;;;;4989915;28;20061;-67
2024/03/05 09:27:12;;;;;;;22.50;10.02;;;8.60;99.90;;;;;;4992664;28;20049;-68
2024/03/05 09:29:42;;;;;;;24.35;10.60;;;8.60;99.90;;;;;;4987773;28;20054;-67
2024/03/05 09:32:08;;;;;;;26.15;11.05;;;8.60;99.90;;;;;;4993699;28;20472;-67
2024/03/05 09:34:34;;;;;;;24.50;10.50;;;8.60;99.90;;;;;;4987976;28;20050;-68
2024/03/05 09:36:59;;;;;;;35.63;10.52;;;8.60;99.90;;;;;;4998887;28;20057;-68
2024/03/05 09:39:26;;;;;;;35.42;13.05;;;8.60;99.90;;;;;;4988410;28;20027;-68
2024/03/05 09:41:53;;;;;;;25.13;10.55;;;8.60;99.90;;;;;;4993394;28;20026;-67
2024/03/05 09:44:20;;;;;;;27.17;9.23;;;8.60;99.90;;;;;;4991222;28;20037;-68
2024/03/05 09:46:48;;;;;;;27.10;10.00;;;8.50;99.90;;;;;;5000523;28;20023;-67
2024/03/05 09:49:18;;;;;;;23.45;9.48;;;8.50;99.90;;;;;;4972027;28;20569;-68
2024/03/05 09:51:46;;;;;;;26.17;9.13;;;8.40;99.90;;;;;;5007995;28;20030;-68
2024/03/05 09:54:13;;;;;;;27.88;10.18;;;8.50;99.90;;;;;;5004203;28;20043;-67
2024/03/05 09:56:45;;;;;;;24.27;10.18;;;8.40;99.90;;;;;;4992133;28;20030;-68
2024/03/05 09:59:16;;;;;;;21.17;7.95;;;8.50;99.90;;;;;;4989114;28;20030;-67
2024/03/05 10:01:45;;;;;;;19.80;9.63;;;8.40;99.90;;;;;;5007059;28;20022;-67
2024/03/05 10:04:16;;;;;;;21.75;9.65;;;8.50;99.90;;;;;;4989150;28;20038;-68
2024/03/05 10:06:51;;;;;;;24.45;9.90;;;8.40;99.90;;;;;;4992781;28;20026;-68
2024/03/05 10:09:17;;;;;;;23.23;9.80;;;8.40;99.90;;;;;;4989682;28;20050;-68
2024/03/05 10:11:44;;;;;;;17.23;8.70;;;8.40;99.90;;;;;;4991659;28;20049;-68
2024/03/05 10:14:11;;;;;;;22.65;9.75;;;8.40;99.90;;;;;;4987840;28;20495;-68
2024/03/05 10:16:38;;;;;;;19.98;9.25;;;8.30;99.90;;;;;;5007667;28;20398;-68
2024/03/05 10:19:16;;;;;;;15.30;8.70;;;8.40;99.90;;;;;;4974815;28;20034;-68
2024/03/05 10:21:42;;;;;;;21.20;8.43;;;8.30;99.90;;;;;;4991650;28;20053;-68
2024/03/05 10:24:10;;;;;;;21.77;8.60;;;8.40;99.90;;;;;;4988787;28;20045;-68
2024/03/05 10:26:37;;;;;;;19.77;7.60;;;8.50;99.90;;;;;;4991528;28;20034;-68
2024/03/05 10:29:08;;;;;;;23.92;10.20;;;8.50;99.90;;;;;;4984359;28;20439;-68
2024/03/05 10:31:36;;;;;;;22.50;8.60;;;8.40;99.90;;;;;;5006090;28;20034;-68
2024/03/05 10:34:03;;;;;;;21.95;8.57;;;8.40;99.90;;;;;;4988504;28;20672;-68
2024/03/05 10:36:42;;;;;;;20.95;9.73;;;8.50;99.90;;;;;;4991447;28;20022;-68
2024/03/05 10:39:12;;;;;;;31.63;9.65;;;8.50;99.90;;;;;;4987391;28;20037;-68
2024/03/05 10:41:40;;;;;;;18.92;10.73;;;8.60;99.90;;;;;;4991464;28;20034;-68
2024/03/05 10:44:07;;;;;;;22.30;9.85;;;8.50;99.90;;;;;;4989977;28;20117;-68
2024/03/05 10:46:35;;;;;;;24.48;8.82;;;8.60;99.90;;;;;;4991120;28;20073;-67
2024/03/05 10:49:07;;;;;;;18.58;7.35;;;8.60;99.90;;;;;;4986971;28;20022;-68
2024/03/05 10:51:41;;;;;;;25.33;9.50;;;8.50;99.90;;;;;;4991131;28;20113;-68
2024/03/05 10:54:07;;;;;;;28.63;9.55;;;8.50;99.90;;;;;;4986870;28;20034;-68
2024/03/05 10:56:35;;;;;;;22.23;10.82;;;8.50;99.90;;;;;;4991001;28;20034;-67
2024/03/05 11:02:00;;;;;;;18.60;9.32;;;8.60;99.90;;;;;;4983379;28;20035;-68
2024/03/05 11:04:30;;;;;;;26.00;9.77;;;8.60;99.90;;;;;;4986544;28;20042;-68
2024/03/05 11:06:58;;;;;;;21.83;9.38;;;8.70;99.90;;;;;;5007514;28;20022;-67
2024/03/05 11:09:26;;;;;;;25.13;9.82;;;8.70;99.90;;;;;;4986935;28;20030;-68
2024/03/05 11:12:16;;;;;;;21.77;9.65;;;8.80;99.90;;;;;;4991157;28;20057;-68
2024/03/05 11:14:45;;;;;;;22.33;9.48;;;8.80;99.90;;;;;;4986089;28;20030;-68
2024/03/05 11:17:12;;;;;;;29.20;9.85;;;8.80;99.90;;;;;;5006829;28;20413;-68
2024/03/05 11:19:47;;;;;;;21.60;7.85;;;8.80;99.90;;;;;;4987827;28;20062;-68
2024/03/05 11:22:25;;;;;;;19.33;8.25;;;8.80;99.90;;;;;;4990455;28;20068;-68
2024/03/05 11:25:01;;;;;;;22.48;8.07;;;8.80;99.90;;;;;;4984640;28;20585;-68
2024/03/05 11:27:30;;;;;;;19.38;8.65;;;8.80;99.90;;;;;;4975061;28;20058;-68
2024/03/05 11:30:16;;;;;;;28.30;10.63;;;8.70;99.90;;;;;;4986345;28;20476;-68
2024/03/05 11:32:44;;;;;;;17.13;8.35;;;8.70;99.90;;;;;;4982445;28;20041;-68
2024/03/05 11:35:11;;;;;;;28.33;11.45;;;8.70;99.90;;;;;;4987359;28;20076;-68
2024/03/05 11:37:57;;;;;;;22.02;10.57;;;8.70;99.90;;;;;;5006721;28;20022;-68
2024/03/05 11:40:35;;;;;;;28.33;9.80;;;8.70;99.90;;;;;;4988504;28;20039;-68
2024/03/05 11:43:04;;;;;;;22.42;9.23;;;8.80;99.90;;;;;;4989974;28;20034;-68
2024/03/05 11:45:46;;;;;;;22.92;7.55;;;8.70;99.90;;;;;;4987691;28;20030;-68
2024/03/05 11:48:19;;;;;;;18.00;8.57;;;8.70;99.90;;;;;;4991141;28;20049;-68
2024/03/05 11:50:54;;;;;;;22.88;8.68;;;8.80;99.90;;;;;;5006479;28;20049;-68
2024/03/05 11:53:19;;;;;;;25.15;9.02;;;8.80;99.90;;;;;;4987682;28;20031;-68
2024/03/05 11:55:46;;;;;;;19.90;8.10;;;8.70;99.90;;;;;;5006427;28;20044;-68
2024/03/05 11:58:14;;;;;;;21.58;8.35;;;8.70;99.90;;;;;;5003088;28;20027;-69
2024/03/05 12:00:40;;;;;;;12.27;6.45;;;8.70;99.90;;;;;;4990859;28;20038;-69
2024/03/05 12:03:09;;;;;;;19.25;8.27;;;8.60;99.90;;;;;;4972993;28;20506;-69
2024/03/05 12:05:34;;;;;;;14.23;6.35;;;8.70;99.90;;;;;;5006026;28;20034;-69
2024/03/05 12:08:08;;;;;;;15.52;6.07;;;8.60;99.90;;;;;;5002711;28;20084;-69
2024/03/05 12:10:35;;;;;;;9.63;5.78;;;8.60;99.90;;;;;;4989575;28;20034;-69
2024/03/05 12:13:05;;;;;;;12.68;4.95;;;8.60;99.90;;;;;;5005593;28;20034;-68
2024/03/05 12:15:35;;;;;;;13.80;4.93;;;8.60;99.90;;;;;;4973534;28;20081;-68
2024/03/05 12:18:12;;;;;;;20.50;4.97;;;8.70;99.90;;;;;;5003064;28;20382;-69
2024/03/05 12:20:42;;;;;;;8.25;4.60;;;8.70;99.90;;;;;;4990987;28;20121;-69
2024/03/05 12:23:08;;;;;;;8.43;3.80;;;8.70;99.90;;;;;;5003029;28;20122;-69
2024/03/05 12:25:35;;;;;;;10.35;3.85;;;8.80;99.90;;;;;;4990787;28;20465;-69
2024/03/05 12:28:01;;;;;;;10.38;4.25;;;8.90;99.90;;;;;;4990899;28;20539;-69
2024/03/05 12:30:35;;;;;;;8.20;3.95;;;9.00;99.90;;;;;;4994470;28;20030;-69
2024/03/05 12:33:01;;;;;;;9.63;4.38;;;9.30;99.90;;;;;;4994291;28;20030;-69
2024/03/05 12:35:27;;;;;;;8.85;4.32;;;9.60;99.90;;;;;;4993136;28;20034;-68
2024/03/05 12:37:55;;;;;;;9.27;4.43;;;9.80;99.90;;;;;;4991935;28;20022;-69
2024/03/05 12:40:25;;;;;;;7.72;3.78;;;10.30;99.90;;;;;;4993130;28;20026;-69
2024/03/05 12:42:52;;;;;;;6.95;3.50;;;10.60;99.90;;;;;;4987078;28;20089;-67
2024/03/05 12:45:18;;;;;;;6.75;3.10;;;10.80;99.90;;;;;;5008851;28;20064;-67
2024/03/05 12:47:57;;;;;;;9.00;3.13;;;10.90;99.90;;;;;;4976622;28;20022;-68
2024/03/05 12:50:24;;;;;;;8.38;3.35;;;11.20;99.90;;;;;;4993853;28;20097;-67
2024/03/05 12:53:03;;;;;;;4.45;2.17;;;11.10;99.90;;;;;;5005599;28;20182;-67
2024/03/05 12:55:30;;;;;;;5.40;2.50;;;11.10;99.90;;;;;;4993557;28;20023;-67
2024/03/05 12:58:12;;;;;;;9.57;2.60;;;11.00;99.90;;;;;;4990354;28;20022;-67